createdAt,value
2019-05-03T00:09:08.216Z,5.70
2019-05-03T00:16:35.363Z,5.80
2019-05-03T00:21:29.696Z,5.60
2019-05-03T00:23:55.784Z,5.50
2019-05-03T00:28:48.937Z,5.30
2019-05-03T00:50:51.779Z,4.70
2019-05-03T00:53:18.119Z,4.70
2019-05-03T00:58:11.792Z,4.60
2019-05-03T01:00:38.179Z,4.60
2019-05-03T01:12:52.484Z,4.50
2019-05-03T01:20:18.478Z,4.30
2019-05-03T01:27:38.352Z,4.10
2019-05-03T01:30:06.456Z,4.10
2019-05-03T01:32:33.024Z,4.00
2019-05-03T01:37:25.711Z,3.90
2019-05-03T01:39:52.570Z,4.00
2019-05-03T01:49:44.995Z,3.90
2019-05-03T01:54:39.415Z,3.80
2019-05-03T02:02:09.123Z,3.70
2019-05-03T02:04:45.960Z,3.70
2019-05-03T02:07:12.045Z,3.70
2019-05-03T02:16:57.948Z,3.70
2019-05-03T02:21:52.399Z,3.60
2019-05-03T02:34:05.997Z,3.50
2019-05-03T02:39:02.673Z,3.50
2019-05-03T02:41:28.038Z,3.50
2019-05-03T02:43:58.061Z,3.50
2019-05-03T02:46:26.065Z,3.50
2019-05-03T02:53:51.699Z,3.50
2019-05-03T02:56:22.133Z,3.40
2019-05-03T02:58:46.120Z,3.30
2019-05-03T03:08:37.012Z,3.40
2019-05-03T03:13:36.812Z,3.40
2019-05-03T03:16:06.909Z,3.40
2019-05-03T03:18:36.622Z,3.40
2019-05-03T03:21:05.685Z,3.40
2019-05-03T03:23:35.674Z,3.30
2019-05-03T03:26:02.997Z,3.20
2019-05-03T03:28:32.162Z,3.30
2019-05-03T03:31:23.040Z,3.40
2019-05-03T03:33:49.605Z,3.30
2019-05-03T03:36:37.579Z,3.30
2019-05-03T03:38:45.889Z,3.30
2019-05-03T03:41:16.176Z,3.30
2019-05-03T03:43:42.329Z,3.30
2019-05-03T03:46:09.145Z,3.30
2019-05-03T03:48:39.084Z,3.20
2019-05-03T03:51:08.173Z,3.30
2019-05-03T03:53:36.002Z,3.30
2019-05-03T03:56:02.381Z,3.30
2019-05-03T03:58:28.552Z,3.30
2019-05-03T04:00:55.446Z,3.30
2019-05-03T04:03:21.886Z,3.30
2019-05-03T04:05:47.985Z,3.30
2019-05-03T04:08:16.255Z,3.30
2019-05-03T04:10:42.111Z,3.30
2019-05-03T04:13:10.308Z,3.30
2019-05-03T04:15:56.121Z,3.30
2019-05-03T04:18:27.205Z,3.40
2019-05-03T04:20:55.981Z,3.40
2019-05-03T04:23:21.951Z,3.50
2019-05-03T04:25:48.509Z,3.50
2019-05-03T04:28:16.326Z,3.60
2019-05-03T04:30:42.662Z,3.60
2019-05-03T04:33:08.816Z,3.70
2019-05-03T04:35:36.401Z,3.70
2019-05-03T04:38:05.534Z,3.80
2019-05-03T04:40:31.081Z,3.90
2019-05-03T04:42:57.155Z,3.90
2019-05-03T04:45:25.493Z,4.00
2019-05-03T04:47:51.391Z,4.10
2019-05-03T04:50:17.493Z,4.20
2019-05-03T04:52:46.312Z,4.20
2019-05-03T04:55:11.741Z,4.30
2019-05-03T04:57:45.071Z,4.50
2019-05-03T05:00:11.180Z,4.60
2019-05-03T05:02:35.841Z,4.70
2019-05-03T05:05:05.836Z,4.90
2019-05-03T05:07:31.068Z,5.10
2019-05-03T05:09:57.122Z,5.20
2019-05-03T05:12:25.242Z,5.30
2019-05-03T05:14:51.275Z,5.40
2019-05-03T05:17:19.225Z,5.40
2019-05-03T05:19:54.807Z,5.50
2019-05-03T05:22:31.599Z,5.60
2019-05-03T05:24:58.895Z,5.70
2019-05-03T05:27:48.334Z,6.00
2019-05-03T05:30:06.142Z,6.10
2019-05-03T05:32:32.408Z,6.50
2019-05-03T05:34:58.567Z,7.00
2019-05-03T05:37:25.078Z,7.20
2019-05-03T05:39:51.279Z,7.60
2019-05-03T05:42:17.341Z,7.90
2019-05-03T05:44:45.256Z,8.30
2019-05-03T05:47:29.748Z,8.70
2019-05-03T05:49:57.711Z,9.00
2019-05-03T05:52:24.554Z,9.30
2019-05-03T05:55:08.134Z,9.50
2019-05-03T05:57:36.095Z,9.70
2019-05-03T06:00:10.275Z,9.80
2019-05-03T06:02:36.380Z,9.80
2019-05-03T06:05:04.844Z,9.80
2019-05-03T06:07:35.559Z,9.60
2019-05-03T06:10:06.967Z,9.50
2019-05-03T06:12:37.720Z,9.50
2019-05-03T06:15:09.280Z,9.40
2019-05-03T06:17:37.240Z,9.20
2019-05-03T06:20:25.529Z,9.20
2019-05-03T06:22:54.933Z,9.10
2019-05-03T06:25:26.203Z,9.10
2019-05-03T06:27:51.071Z,9.00
2019-05-03T06:30:22.004Z,9.10
2019-05-03T06:32:48.055Z,9.10
2019-05-03T06:35:15.216Z,9.20
2019-05-03T06:37:45.908Z,9.30
2019-05-03T06:40:14.788Z,9.40
2019-05-03T06:42:51.528Z,9.40
2019-05-03T06:45:11.725Z,9.60
2019-05-03T06:47:40.220Z,9.80
2019-05-03T06:50:05.515Z,10.10
2019-05-03T06:52:31.623Z,10.10
2019-05-03T06:55:00.418Z,10.20
2019-05-03T06:57:25.764Z,10.20
2019-05-03T06:59:56.577Z,10.20
2019-05-03T07:02:28.551Z,10.00
2019-05-03T07:05:04.959Z,10.00
2019-05-03T07:07:35.470Z,9.80
2019-05-03T07:10:10.929Z,9.80
2019-05-03T07:12:55.312Z,9.90
2019-05-03T07:15:21.385Z,10.10
2019-05-03T07:17:47.428Z,10.40
2019-05-03T07:20:14.825Z,10.60
2019-05-03T07:22:41.037Z,10.70
2019-05-03T07:25:07.095Z,10.60
2019-05-03T07:27:34.877Z,10.40
2019-05-03T07:30:01.373Z,10.40
2019-05-03T07:32:27.527Z,10.30
2019-05-03T07:34:55.488Z,10.40
2019-05-03T07:37:21.538Z,10.40
2019-05-03T07:39:47.596Z,10.40
2019-05-03T07:42:15.529Z,10.30
2019-05-03T07:44:41.623Z,9.90
2019-05-03T07:47:07.679Z,10.00
2019-05-03T07:49:35.740Z,9.90
2019-05-03T07:52:01.708Z,10.00
2019-05-03T07:54:27.763Z,10.00
2019-05-03T07:56:58.236Z,10.10
2019-05-03T07:59:25.121Z,10.20
2019-05-03T08:01:54.631Z,10.20
2019-05-03T08:04:20.807Z,10.20
2019-05-03T08:06:46.860Z,10.50
2019-05-03T08:09:12.919Z,10.70
2019-05-03T08:11:38.971Z,11.00
2019-05-03T08:14:05.331Z,11.00
2019-05-03T08:16:31.421Z,11.00
2019-05-03T08:18:57.485Z,11.00
2019-05-03T08:21:25.275Z,11.00
2019-05-03T08:23:51.633Z,11.10
2019-05-03T08:26:17.691Z,11.20
2019-05-03T08:28:44.464Z,11.40
2019-05-03T08:31:27.977Z,11.50
2019-05-03T08:34:05.023Z,11.70
2019-05-03T08:36:35.591Z,11.70
2019-05-03T08:39:01.639Z,11.50
2019-05-03T08:41:29.595Z,11.30
2019-05-03T08:43:55.650Z,11.40
2019-05-03T08:46:21.707Z,11.60
2019-05-03T08:48:47.755Z,11.80
2019-05-03T08:51:14.846Z,12.00
2019-05-03T08:53:41.085Z,12.00
2019-05-03T08:56:07.185Z,11.70
2019-05-03T08:58:34.775Z,11.30
2019-05-03T09:01:01.171Z,11.10
2019-05-03T09:03:27.245Z,11.20
2019-05-03T09:05:56.239Z,11.30
2019-05-03T09:08:21.287Z,11.30
2019-05-03T09:10:52.033Z,11.30
2019-05-03T09:13:21.917Z,11.00
2019-05-03T09:15:49.868Z,10.60
2019-05-03T09:18:17.463Z,10.10
2019-05-03T09:20:44.823Z,9.80
2019-05-03T09:23:11.157Z,9.60
2019-05-03T09:25:37.353Z,9.50
2019-05-03T09:28:04.704Z,9.50
2019-05-03T09:30:30.992Z,7.40
2019-05-03T09:32:57.044Z,9.80
2019-05-03T09:35:30.587Z,10.00
2019-05-03T09:37:51.068Z,10.30
2019-05-03T09:40:17.127Z,10.80
2019-05-03T09:42:44.486Z,10.80
2019-05-03T09:45:11.388Z,11.00
2019-05-03T09:47:37.488Z,11.30
2019-05-03T09:50:05.137Z,11.40
2019-05-03T09:52:31.199Z,11.60
2019-05-03T09:54:59.248Z,11.90
2019-05-03T09:57:25.324Z,12.10
2019-05-03T09:59:58.959Z,12.40
2019-05-03T10:02:19.332Z,12.50
2019-05-03T10:04:45.393Z,12.70
2019-05-03T10:07:11.553Z,12.80
2019-05-03T10:09:37.635Z,12.80
2019-05-03T10:12:05.695Z,12.80
2019-05-03T10:14:31.824Z,12.50
2019-05-03T10:17:17.799Z,12.40
2019-05-03T10:19:45.214Z,12.60
2019-05-03T10:22:12.752Z,12.70
2019-05-03T10:24:38.806Z,12.90
2019-05-03T10:27:05.571Z,13.20
2019-05-03T10:29:31.912Z,13.30
2019-05-03T10:31:59.887Z,13.10
2019-05-03T10:34:25.943Z,13.00
2019-05-03T10:36:52.004Z,13.20
2019-05-03T10:39:18.056Z,13.30
2019-05-03T10:41:45.372Z,13.40
2019-05-03T10:44:11.564Z,13.50
2019-05-03T10:46:37.619Z,13.80
2019-05-03T10:49:05.615Z,14.00
2019-05-03T10:51:35.795Z,14.00
2019-05-03T10:54:01.616Z,14.10
2019-05-03T10:56:35.888Z,14.10
2019-05-03T10:59:06.007Z,13.90
2019-05-03T11:01:45.642Z,13.80
2019-05-03T11:04:11.700Z,13.70
2019-05-03T11:06:37.752Z,13.40
2019-05-03T11:09:05.669Z,13.40
2019-05-03T11:11:32.071Z,13.40
2019-05-03T11:13:58.359Z,13.40
2019-05-03T11:16:25.517Z,13.40
2019-05-03T11:18:51.676Z,13.20
2019-05-03T11:21:27.859Z,13.20
2019-05-03T11:23:45.752Z,13.20
2019-05-03T11:26:11.795Z,13.30
2019-05-03T11:28:37.868Z,13.60
2019-05-03T11:31:24.741Z,13.90
2019-05-03T11:33:51.342Z,14.10
2019-05-03T11:36:19.307Z,14.30
2019-05-03T11:38:45.780Z,14.40
2019-05-03T11:41:11.975Z,14.50
2019-05-03T11:43:38.048Z,14.50
2019-05-03T11:46:04.100Z,14.10
2019-05-03T11:48:30.155Z,13.50
2019-05-03T11:50:56.218Z,12.70
2019-05-03T11:53:22.263Z,12.10
2019-05-03T11:55:48.449Z,11.70
2019-05-03T11:58:18.371Z,11.50
2019-05-03T12:00:45.127Z,11.50
2019-05-03T12:03:15.233Z,11.60
2019-05-03T12:05:43.192Z,11.60
2019-05-03T12:08:09.261Z,11.60
2019-05-03T12:10:50.821Z,11.30
2019-05-03T12:13:05.271Z,11.30
2019-05-03T12:15:31.618Z,11.40
2019-05-03T12:17:59.994Z,11.60
2019-05-03T12:20:28.737Z,11.60
2019-05-03T12:22:54.867Z,11.70
2019-05-03T12:25:22.045Z,11.80
2019-05-03T12:27:48.436Z,11.80
2019-05-03T12:30:15.716Z,11.70
2019-05-03T12:32:41.772Z,11.80
2019-05-03T12:35:07.962Z,12.00
2019-05-03T12:37:35.372Z,12.10
2019-05-03T12:40:05.406Z,12.00
2019-05-03T12:42:31.544Z,12.00
2019-05-03T12:44:57.616Z,11.90
2019-05-03T12:47:25.136Z,11.90
2019-05-03T12:49:51.524Z,12.20
2019-05-03T12:52:18.021Z,12.30
2019-05-03T12:54:44.627Z,12.40
2019-05-03T12:57:10.815Z,12.60
2019-05-03T12:59:38.771Z,12.60
2019-05-03T13:02:15.666Z,12.70
2019-05-03T13:04:44.682Z,12.60
2019-05-03T13:07:15.751Z,12.50
2019-05-03T13:09:54.832Z,12.30
2019-05-03T13:12:22.788Z,12.00
2019-05-03T13:14:48.845Z,12.00
2019-05-03T13:17:16.824Z,12.10
2019-05-03T13:19:45.039Z,12.30
2019-05-03T13:22:10.835Z,12.30
2019-05-03T13:24:36.918Z,12.20
2019-05-03T13:27:02.984Z,12.10
2019-05-03T13:29:29.062Z,12.20
2019-05-03T13:32:01.684Z,12.10
2019-05-03T13:34:24.792Z,12.10
2019-05-03T13:36:51.059Z,11.90
2019-05-03T13:39:17.393Z,12.00
2019-05-03T13:41:45.362Z,12.10
2019-05-03T13:44:11.400Z,11.90
2019-05-03T13:46:37.459Z,11.70
2019-05-03T13:49:05.399Z,11.30
2019-05-03T13:51:31.900Z,11.00
2019-05-03T13:53:57.965Z,10.70
2019-05-03T13:56:24.701Z,10.60
2019-05-03T13:58:50.887Z,10.50
2019-05-03T14:01:17.007Z,10.60
2019-05-03T14:03:45.092Z,10.70
2019-05-03T14:06:11.115Z,10.90
2019-05-03T14:08:37.171Z,11.00
2019-05-03T14:11:04.974Z,11.10
2019-05-03T14:13:31.324Z,11.20
2019-05-03T14:15:59.374Z,11.40
2019-05-03T14:18:25.655Z,10.00
2019-05-03T14:21:05.599Z,11.50
2019-05-03T14:23:34.711Z,11.40
2019-05-03T14:26:00.931Z,11.20
2019-05-03T14:28:27.017Z,11.10
2019-05-03T14:30:54.767Z,11.00
2019-05-03T14:33:21.018Z,11.10
2019-05-03T14:35:47.162Z,11.20
2019-05-03T14:38:15.095Z,11.30
2019-05-03T14:40:41.176Z,11.30
2019-05-03T14:43:10.712Z,11.40
2019-05-03T14:45:36.802Z,11.50
2019-05-03T14:48:05.948Z,11.50
2019-05-03T14:50:31.748Z,11.50
2019-05-03T14:52:57.899Z,11.50
2019-05-03T14:55:35.200Z,11.40
2019-05-03T14:58:03.204Z,11.50
2019-05-03T15:00:48.043Z,11.40
2019-05-03T15:03:15.999Z,11.40
2019-05-03T15:05:42.071Z,11.50
2019-05-03T15:08:08.116Z,11.30
2019-05-03T15:10:35.053Z,11.30
2019-05-03T15:13:01.345Z,11.40
2019-05-03T15:15:28.903Z,11.50
2019-05-03T15:17:55.188Z,11.70
2019-05-03T15:20:21.355Z,11.70
2019-05-03T15:22:47.421Z,12.10
2019-05-03T15:25:13.472Z,12.50
2019-05-03T15:27:39.539Z,12.70
2019-05-03T15:30:06.111Z,12.70
2019-05-03T15:32:32.175Z,12.70
2019-05-03T15:34:58.255Z,12.70
2019-05-03T15:37:25.475Z,12.70
2019-05-03T15:39:51.983Z,12.60
2019-05-03T15:42:19.364Z,12.40
2019-05-03T15:44:56.224Z,12.10
2019-05-03T15:47:29.768Z,11.70
2019-05-03T15:49:55.817Z,11.50
2019-05-03T15:52:21.899Z,11.20
2019-05-03T15:54:47.971Z,11.10
2019-05-03T15:57:14.445Z,10.90
2019-05-03T15:59:40.683Z,10.80
2019-05-03T16:02:06.752Z,10.80
2019-05-03T16:04:32.819Z,10.80
2019-05-03T16:06:58.899Z,10.90
2019-05-03T16:09:24.951Z,10.90
2019-05-03T16:11:50.995Z,10.90
2019-05-03T16:14:17.060Z,11.00
2019-05-03T16:16:45.073Z,11.10
2019-05-03T16:19:11.256Z,11.10
2019-05-03T16:21:41.755Z,11.10
2019-05-03T16:24:08.065Z,11.10
2019-05-03T16:26:36.083Z,11.20
2019-05-03T16:29:04.689Z,11.30
2019-05-03T16:31:31.026Z,11.30
2019-05-03T16:33:57.124Z,11.30
2019-05-03T16:36:23.226Z,10.20
2019-05-03T16:38:49.361Z,11.20
2019-05-03T16:41:22.339Z,11.10
2019-05-03T16:43:48.944Z,11.10
2019-05-03T16:46:21.778Z,11.10
2019-05-03T16:48:47.895Z,10.90
2019-05-03T16:51:15.173Z,10.80
2019-05-03T16:53:41.951Z,10.60
2019-05-03T16:56:08.005Z,10.50
2019-05-03T16:58:35.414Z,10.20
2019-05-03T17:01:01.640Z,10.00
2019-05-03T17:03:38.612Z,9.90
2019-05-03T17:05:59.471Z,9.80
2019-05-03T17:08:37.992Z,9.90
2019-05-03T17:11:14.880Z,9.80
2019-05-03T17:13:40.954Z,9.80
2019-05-03T17:16:07.115Z,9.60
2019-05-03T17:18:35.115Z,9.60
2019-05-03T17:21:01.144Z,9.50
2019-05-03T17:23:27.219Z,9.30
2019-05-03T17:25:53.299Z,9.10
2019-05-03T17:28:19.439Z,9.00
2019-05-03T17:30:45.604Z,8.70
2019-05-03T17:33:11.672Z,8.50
2019-05-03T17:35:37.755Z,8.40
2019-05-03T17:38:05.278Z,8.30
2019-05-03T17:40:45.319Z,8.10
2019-05-03T17:43:16.490Z,8.00
2019-05-03T17:45:45.448Z,8.00
2019-05-03T17:48:11.744Z,7.90
2019-05-03T17:50:37.795Z,7.90
2019-05-03T17:53:14.817Z,7.80
2019-05-03T17:55:44.484Z,7.80
2019-05-03T17:58:15.176Z,7.70
2019-05-03T18:00:45.771Z,7.60
2019-05-03T18:03:11.839Z,7.60
2019-05-03T18:05:39.893Z,7.50
2019-05-03T18:08:19.775Z,7.50
2019-05-03T18:10:50.671Z,7.50
2019-05-03T18:13:16.724Z,7.40
2019-05-03T18:15:44.633Z,7.40
2019-05-03T18:18:10.919Z,7.40
2019-05-03T18:20:36.971Z,7.40
2019-05-03T18:23:04.984Z,7.40
2019-05-03T18:25:31.104Z,7.30
2019-05-03T18:27:57.177Z,7.20
2019-05-03T18:30:23.331Z,7.00
2019-05-03T18:32:49.383Z,6.90
2019-05-03T18:35:15.503Z,6.80
2019-05-03T18:37:45.266Z,6.70
2019-05-03T18:40:11.755Z,6.60
2019-05-03T18:42:39.734Z,6.60
2019-05-03T18:45:11.075Z,6.60
2019-05-03T18:47:37.119Z,6.60
2019-05-03T18:52:30.612Z,6.70
2019-05-03T18:54:56.733Z,6.70
2019-05-03T18:57:22.778Z,6.60
2019-05-03T18:59:48.859Z,6.50
2019-05-03T19:02:15.039Z,6.40
2019-05-03T19:04:45.045Z,6.30
2019-05-03T19:07:25.417Z,6.20
2019-05-03T19:09:55.090Z,6.20
2019-05-03T19:12:28.825Z,6.10
2019-05-03T19:14:55.346Z,6.00
2019-05-03T19:17:35.570Z,6.00
2019-05-03T19:20:04.787Z,5.80
2019-05-03T19:22:31.003Z,5.70
2019-05-03T19:24:57.290Z,5.60
2019-05-03T19:27:25.153Z,5.60
2019-05-03T19:29:51.623Z,5.50
2019-05-03T19:32:17.899Z,5.50
2019-05-03T19:34:50.230Z,5.50
2019-05-03T19:37:11.979Z,5.40
2019-05-03T19:39:38.192Z,5.50
2019-05-03T19:42:04.243Z,5.50
2019-05-03T19:44:30.295Z,5.50
2019-05-03T19:46:56.402Z,5.50
2019-05-03T19:49:24.549Z,5.50
2019-05-03T19:51:50.432Z,5.50
2019-05-03T19:54:16.491Z,5.50
2019-05-03T19:56:42.570Z,5.50
2019-05-03T19:59:10.587Z,5.60
2019-05-03T20:01:38.543Z,5.50
2019-05-03T20:04:12.295Z,5.50
2019-05-03T20:06:58.607Z,5.50
2019-05-03T20:09:26.364Z,5.50
2019-05-03T20:11:52.429Z,5.50
2019-05-03T20:14:18.501Z,5.50
2019-05-03T20:16:45.010Z,5.50
2019-05-03T20:19:18.830Z,5.50
2019-05-03T20:21:39.220Z,5.60
2019-05-03T20:24:05.678Z,5.60
2019-05-03T20:26:31.930Z,5.60
2019-05-03T20:28:58.011Z,5.60
2019-05-03T20:31:25.294Z,5.60
2019-05-03T20:33:51.532Z,5.60
2019-05-03T20:36:17.592Z,5.50
2019-05-03T20:38:44.577Z,5.40
2019-05-03T20:41:11.003Z,5.30
2019-05-03T20:43:41.896Z,5.20
2019-05-03T20:46:10.710Z,5.10
2019-05-03T20:48:37.743Z,5.10
2019-05-03T20:51:03.856Z,5.10
2019-05-03T20:53:30.016Z,5.00
2019-05-03T20:55:56.102Z,4.90
2019-05-03T20:58:22.156Z,4.80
2019-05-03T21:00:48.226Z,4.70
2019-05-03T21:03:15.268Z,4.60
2019-05-03T21:05:41.531Z,4.50
2019-05-03T21:08:07.587Z,4.40
2019-05-03T21:10:33.651Z,4.30
2019-05-03T21:12:59.719Z,4.20
2019-05-03T21:15:44.549Z,4.10
2019-05-03T21:18:29.182Z,3.90
2019-05-03T21:21:13.895Z,3.90
2019-05-03T21:23:55.374Z,3.80
2019-05-03T21:26:21.855Z,3.70
2019-05-03T21:28:47.955Z,3.60
2019-05-03T21:31:15.667Z,3.60
2019-05-03T21:33:41.923Z,3.60
2019-05-03T21:36:08.243Z,3.70
2019-05-03T21:38:35.409Z,3.70
2019-05-03T21:41:01.907Z,3.70
2019-05-03T21:43:28.019Z,3.70
2019-05-03T21:45:56.080Z,3.70
2019-05-03T21:48:40.752Z,3.70
2019-05-03T21:51:06.808Z,3.60
2019-05-03T21:53:34.463Z,3.50
2019-05-03T21:56:00.757Z,3.50
2019-05-03T21:58:26.926Z,3.50
2019-05-03T22:00:54.892Z,3.40
2019-05-03T22:03:20.956Z,3.30
2019-05-03T22:05:55.121Z,3.30
2019-05-03T22:08:15.080Z,3.30
2019-05-03T22:10:41.139Z,3.20
2019-05-03T22:13:07.191Z,3.20
2019-05-03T22:15:38.401Z,3.20
2019-05-03T22:18:06.351Z,3.20
2019-05-03T22:20:35.035Z,3.20
2019-05-03T22:23:04.543Z,3.20
2019-05-03T22:25:32.571Z,3.10
2019-05-03T22:27:58.643Z,3.10
2019-05-03T22:30:26.914Z,3.10
2019-05-03T22:32:54.780Z,3.10
2019-05-03T22:35:21.066Z,3.20
2019-05-03T22:37:47.135Z,3.20
2019-05-03T22:40:14.627Z,3.30
2019-05-03T22:42:40.944Z,3.30
2019-05-03T22:45:07.509Z,3.40
2019-05-03T22:47:35.628Z,3.40
2019-05-03T22:50:01.792Z,3.30
2019-05-03T22:52:27.859Z,3.30
2019-05-03T22:54:55.477Z,3.30
2019-05-03T22:57:21.788Z,3.20
2019-05-03T22:59:47.838Z,3.20
2019-05-03T23:02:16.876Z,3.20
2019-05-03T23:04:41.880Z,3.30
2019-05-03T23:07:08.076Z,3.40
2019-05-03T23:09:35.270Z,3.40
2019-05-03T23:12:01.492Z,3.50
2019-05-03T23:16:54.098Z,3.70
2019-05-03T23:19:20.143Z,3.70
2019-05-03T23:21:48.102Z,3.70
2019-05-03T23:24:15.416Z,3.70
2019-05-03T23:26:41.615Z,3.70
2019-05-03T23:29:07.681Z,3.70
2019-05-03T23:31:34.371Z,3.70
2019-05-03T23:34:00.580Z,3.80
2019-05-03T23:36:33.318Z,3.80
2019-05-03T23:38:54.756Z,3.90
2019-05-03T23:41:21.082Z,4.00
2019-05-03T23:43:47.143Z,4.10
2019-05-03T23:46:14.908Z,4.10
2019-05-03T23:48:41.010Z,4.10
2019-05-03T23:51:08.983Z,4.10
2019-05-03T23:53:35.036Z,4.10
2019-05-03T23:56:04.497Z,4.10
2019-05-03T23:58:30.652Z,4.10
